createdAt,value
2022-08-05T00:02:17.792Z,24.16
2022-08-05T00:07:26.840Z,24.00
2022-08-05T00:12:17.705Z,24.08
2022-08-05T00:17:19.369Z,23.95
2022-08-05T00:22:17.876Z,23.93
2022-08-05T00:27:17.790Z,23.84
2022-08-05T00:32:17.716Z,23.51
2022-08-05T00:37:17.787Z,23.50
2022-08-05T00:42:31.574Z,23.55
2022-08-05T00:47:17.779Z,23.44
2022-08-05T00:52:18.114Z,23.59
2022-08-05T00:57:17.769Z,23.53
2022-08-05T01:02:17.742Z,23.41
2022-08-05T01:07:17.870Z,23.34
2022-08-05T01:12:18.703Z,23.24
2022-08-05T01:17:17.798Z,23.19
2022-08-05T01:22:18.894Z,23.16
2022-08-05T01:27:19.602Z,23.02
2022-08-05T01:32:18.419Z,22.86
2022-08-05T01:37:24.476Z,22.89
2022-08-05T01:42:17.760Z,22.71
2022-08-05T01:47:17.792Z,22.66
2022-08-05T01:52:18.225Z,22.52
2022-08-05T01:58:12.869Z,22.48
2022-08-05T02:02:17.882Z,22.54
2022-08-05T02:07:22.035Z,22.51
2022-08-05T02:12:17.785Z,22.28
2022-08-05T02:17:29.876Z,22.21
2022-08-05T02:22:26.721Z,22.32
2022-08-05T02:27:17.808Z,22.26
2022-08-05T02:32:23.748Z,22.25
2022-08-05T02:37:17.822Z,22.28
2022-08-05T02:42:26.018Z,22.12
2022-08-05T02:47:17.847Z,22.03
2022-08-05T02:52:29.621Z,22.06
2022-08-05T02:58:09.414Z,21.89
2022-08-05T03:02:17.790Z,21.63
2022-08-05T03:07:40.407Z,21.53
2022-08-05T03:12:17.807Z,21.61
2022-08-05T03:17:17.839Z,21.46
2022-08-05T03:22:19.046Z,21.40
2022-08-05T03:27:18.187Z,21.34
2022-08-05T03:32:17.814Z,20.96
2022-08-05T03:37:17.855Z,20.75
2022-08-05T03:42:17.812Z,20.74
2022-08-05T03:47:17.854Z,20.93
2022-08-05T03:52:48.461Z,20.95
2022-08-05T03:57:18.106Z,21.08
2022-08-05T04:02:38.843Z,21.04
2022-08-05T04:07:17.873Z,20.98
2022-08-05T04:12:24.709Z,21.00
2022-08-05T04:17:17.898Z,21.13
2022-08-05T04:22:20.519Z,21.24
2022-08-05T04:27:17.891Z,21.64
2022-08-05T04:32:20.090Z,22.05
2022-08-05T04:37:17.909Z,22.74
2022-08-05T04:42:17.837Z,23.22
2022-08-05T04:47:20.301Z,23.90
2022-08-05T04:52:18.594Z,24.51
2022-08-05T04:57:17.901Z,24.83
2022-08-05T05:02:36.407Z,24.23
2022-08-05T05:07:17.922Z,24.70
2022-08-05T05:12:17.857Z,25.73
2022-08-05T05:17:23.330Z,25.93
2022-08-05T05:22:23.870Z,27.05
2022-08-05T05:27:17.893Z,27.65
2022-08-05T05:32:18.367Z,28.48
2022-08-05T05:37:17.957Z,28.72
2022-08-05T05:42:17.899Z,29.42
2022-08-05T05:47:30.621Z,30.20
2022-08-05T05:52:29.830Z,30.68
2022-08-05T05:57:19.380Z,30.89
2022-08-05T06:02:32.516Z,32.02
2022-08-05T06:07:17.954Z,31.71
2022-08-05T06:12:17.890Z,33.28
2022-08-05T06:17:21.975Z,32.76
2022-08-05T06:22:17.926Z,32.94
2022-08-05T06:28:10.813Z,32.70
2022-08-05T06:32:26.090Z,32.75
2022-08-05T06:37:17.957Z,30.31
2022-08-05T06:42:17.914Z,29.40
2022-08-05T06:47:30.343Z,28.81
2022-08-05T06:52:36.977Z,30.48
2022-08-05T06:57:57.534Z,32.96
2022-08-05T07:02:17.928Z,34.47
2022-08-05T07:07:24.190Z,35.70
2022-08-05T07:12:17.937Z,35.87
2022-08-05T07:18:02.048Z,36.45
2022-08-05T07:22:17.996Z,35.02
2022-08-05T07:27:17.979Z,35.24
2022-08-05T07:32:18.282Z,35.55
2022-08-05T07:37:17.992Z,34.20
2022-08-05T07:42:18.046Z,35.03
2022-08-05T07:47:18.038Z,36.83
2022-08-05T07:52:17.993Z,37.16
2022-08-05T07:57:58.857Z,37.54
2022-08-05T08:02:18.255Z,38.15
2022-08-05T08:07:22.131Z,38.66
2022-08-05T08:12:35.259Z,39.14
2022-08-05T08:17:18.042Z,39.18
2022-08-05T08:22:18.001Z,36.91
2022-08-05T08:27:18.572Z,35.88
2022-08-05T08:32:18.549Z,36.94
2022-08-05T08:37:20.464Z,37.15
2022-08-05T08:42:34.571Z,35.55
2022-08-05T08:47:47.607Z,36.82
2022-08-05T08:52:18.027Z,37.21
2022-08-05T08:57:18.051Z,37.18
2022-08-05T09:02:18.125Z,36.28
2022-08-05T09:07:19.676Z,35.54
2022-08-05T09:12:20.576Z,35.37
2022-08-05T09:17:42.986Z,35.40
2022-08-05T09:22:31.156Z,34.86
2022-08-05T09:27:18.704Z,35.02
2022-08-05T09:32:40.193Z,35.62
2022-08-05T09:37:18.055Z,34.92
2022-08-05T09:42:23.162Z,34.74
2022-08-05T09:47:20.445Z,34.75
2022-08-05T09:52:18.017Z,35.56
2022-08-05T09:57:23.469Z,34.92
2022-08-05T10:02:18.073Z,34.37
2022-08-05T10:07:20.423Z,34.43
2022-08-05T10:12:30.547Z,34.33
2022-08-05T10:22:29.774Z,34.42
2022-08-05T10:27:18.198Z,34.11
2022-08-05T10:33:02.203Z,34.32
2022-08-05T10:37:18.066Z,34.08
2022-08-05T10:42:18.503Z,33.65
2022-08-05T10:47:27.137Z,33.99
2022-08-05T10:52:18.115Z,33.76
2022-08-05T10:57:18.094Z,33.70
2022-08-05T11:02:38.209Z,33.68
2022-08-05T11:07:18.054Z,33.75
2022-08-05T11:12:18.106Z,33.43
2022-08-05T11:17:57.181Z,33.59
2022-08-05T11:22:18.133Z,33.61
2022-08-05T11:27:18.111Z,33.55
2022-08-05T11:32:18.094Z,33.65
2022-08-05T11:38:29.336Z,33.43
2022-08-05T11:42:18.656Z,33.37
2022-08-05T11:47:21.821Z,33.40
2022-08-05T11:52:18.119Z,33.33
2022-08-05T11:57:25.847Z,33.37
2022-08-05T12:02:23.912Z,35.86
2022-08-05T12:07:18.101Z,40.60
2022-08-05T12:12:18.145Z,40.77
2022-08-05T12:18:03.596Z,40.42
2022-08-05T12:22:20.126Z,41.34
2022-08-05T12:27:32.539Z,40.24
2022-08-05T12:32:18.145Z,39.96
2022-08-05T12:37:21.577Z,40.63
2022-08-05T12:42:18.159Z,40.30
2022-08-05T12:47:18.229Z,40.46
2022-08-05T12:52:25.378Z,41.03
2022-08-05T12:57:18.194Z,40.16
2022-08-05T13:02:18.230Z,41.45
2022-08-05T13:07:26.934Z,35.66
2022-08-05T13:12:18.176Z,34.24
2022-08-05T13:22:28.010Z,33.99
2022-08-05T13:27:23.067Z,34.25
2022-08-05T13:32:21.741Z,33.75
2022-08-05T13:37:34.374Z,33.98
2022-08-05T13:42:18.277Z,33.48
2022-08-05T13:47:35.501Z,33.92
2022-08-05T13:52:18.190Z,34.17
2022-08-05T13:57:18.226Z,34.04
2022-08-05T14:02:19.962Z,34.08
2022-08-05T14:07:26.466Z,33.92
2022-08-05T14:12:32.722Z,34.11
2022-08-05T14:17:18.166Z,34.18
2022-08-05T14:22:18.206Z,33.98
2022-08-05T14:27:18.775Z,33.83
2022-08-05T14:32:27.064Z,33.93
2022-08-05T14:37:18.175Z,33.77
2022-08-05T14:42:20.837Z,33.52
2022-08-05T14:48:02.697Z,33.45
2022-08-05T14:52:36.265Z,33.77
2022-08-05T14:57:18.229Z,33.61
2022-08-05T15:02:18.333Z,33.91
2022-08-05T15:08:06.286Z,33.89
2022-08-05T15:12:18.260Z,34.04
2022-08-05T15:17:46.721Z,33.69
2022-08-05T15:22:18.236Z,33.99
2022-08-05T15:27:18.243Z,34.02
2022-08-05T15:32:18.267Z,33.69
2022-08-05T15:38:08.418Z,33.54
2022-08-05T15:42:54.164Z,33.90
2022-08-05T15:47:18.223Z,34.01
2022-08-05T15:52:29.126Z,33.73
2022-08-05T15:57:18.276Z,33.10
2022-08-05T16:02:25.292Z,33.54
2022-08-05T16:07:18.243Z,33.76
2022-08-05T16:12:20.001Z,33.75
2022-08-05T16:17:18.265Z,33.58
2022-08-05T16:22:18.278Z,33.66
2022-08-05T16:27:18.294Z,33.73
2022-08-05T16:32:18.284Z,33.57
2022-08-05T16:38:16.315Z,33.63
2022-08-05T16:42:27.925Z,33.09
2022-08-05T16:47:28.695Z,33.02
2022-08-05T16:52:18.287Z,33.16
2022-08-05T16:57:22.333Z,32.96
2022-08-05T17:02:18.493Z,32.75
2022-08-05T17:07:39.172Z,32.65
2022-08-05T17:12:18.328Z,32.55
2022-08-05T17:17:19.679Z,32.42
2022-08-05T17:22:25.546Z,32.21
2022-08-05T17:27:18.315Z,32.03
2022-08-05T17:32:18.548Z,31.87
2022-08-05T17:37:39.255Z,31.78
2022-08-05T17:42:22.000Z,31.73
2022-08-05T17:47:18.313Z,31.64
2022-08-05T17:52:18.444Z,31.47
2022-08-05T17:57:18.445Z,31.42
2022-08-05T18:02:18.321Z,31.19
2022-08-05T18:07:18.306Z,31.08
2022-08-05T18:12:24.123Z,30.86
2022-08-05T18:18:00.202Z,30.90
2022-08-05T18:22:18.710Z,30.50
2022-08-05T18:27:19.161Z,30.52
2022-08-05T18:32:18.349Z,30.33
2022-08-05T18:37:33.508Z,29.98
2022-08-05T18:42:18.430Z,30.17
2022-08-05T18:47:18.420Z,30.04
2022-08-05T18:52:18.431Z,29.67
2022-08-05T18:57:18.414Z,29.41
2022-08-05T19:02:38.125Z,29.31
2022-08-05T19:07:18.458Z,28.75
2022-08-05T19:12:18.575Z,28.89
2022-08-05T19:17:18.495Z,29.16
2022-08-05T19:22:18.649Z,29.10
2022-08-05T19:27:18.543Z,29.13
2022-08-05T19:32:18.711Z,28.86
2022-08-05T19:37:18.405Z,28.92
2022-08-05T19:42:18.625Z,28.83
2022-08-05T19:47:18.547Z,28.85
2022-08-05T19:52:30.896Z,28.77
2022-08-05T19:57:18.743Z,28.45
2022-08-05T20:02:18.678Z,28.06
2022-08-05T20:07:45.888Z,27.89
2022-08-05T20:12:18.626Z,27.97
2022-08-05T20:17:18.537Z,28.03
2022-08-05T20:22:18.738Z,28.02
2022-08-05T20:27:18.466Z,27.64
2022-08-05T20:32:18.550Z,27.79
2022-08-05T20:38:04.811Z,27.60
2022-08-05T20:42:21.728Z,27.49
2022-08-05T20:47:18.405Z,27.29
2022-08-05T20:52:18.533Z,27.24
2022-08-05T20:57:42.156Z,27.29
2022-08-05T21:02:18.513Z,26.95
2022-08-05T21:07:18.406Z,26.96
2022-08-05T21:12:18.555Z,26.89
2022-08-05T21:17:18.436Z,26.74
2022-08-05T21:22:21.760Z,26.76
2022-08-05T21:27:18.465Z,26.71
2022-08-05T21:32:20.130Z,26.48
2022-08-05T21:37:18.434Z,26.35
2022-08-05T21:42:30.679Z,26.27
2022-08-05T21:47:56.477Z,26.25
2022-08-05T21:52:28.184Z,26.00
2022-08-05T21:57:32.369Z,26.23
2022-08-05T22:02:18.550Z,26.09
2022-08-05T22:12:18.632Z,25.93
2022-08-05T22:17:18.462Z,25.82
2022-08-05T22:22:22.804Z,25.90
2022-08-05T22:27:18.493Z,25.71
2022-08-05T22:32:18.490Z,25.62
2022-08-05T22:37:18.462Z,25.38
2022-08-05T22:42:25.280Z,25.35
2022-08-05T22:47:28.897Z,25.12
2022-08-05T22:57:18.635Z,25.16
2022-08-05T23:02:28.928Z,25.09
2022-08-05T23:07:18.565Z,25.19
2022-08-05T23:12:18.585Z,24.99
2022-08-05T23:17:23.934Z,24.76
2022-08-05T23:22:19.294Z,24.70
2022-08-05T23:27:18.541Z,24.39
2022-08-05T23:32:22.680Z,24.41
2022-08-05T23:37:18.512Z,24.49
2022-08-05T23:42:29.522Z,24.50
2022-08-05T23:47:18.527Z,24.57
2022-08-05T23:52:18.512Z,24.24
2022-08-05T23:57:18.557Z,24.15
